Time;durP1;ratioP1;P1;durP2;ratioP2;P2;SDS_P1;SDS_P2;PMS_P1;PMS_P2;Temp;Humidity;BMP_temperature;BMP_pressure;BME280_temperature;BME280_humidity;BME280_pressure;Samples;Min_cycle;Max_cycle;Signal;HPM_P1;HPM_P2
2022/04/02 00:01:43;;;;;;;14.18;11.55;;;3.40;1.00;;;;;;5011349;28;20079;-80
2022/04/02 00:04:10;;;;;;;13.68;11.13;;;3.80;1.00;;;;;;5011073;28;20044;-80
2022/04/02 00:06:36;;;;;;;11.77;9.73;;;3.40;1.00;;;;;;5011549;28;20046;-80
2022/04/02 00:09:05;;;;;;;12.88;10.73;;;3.30;1.00;;;;;;5011766;28;20022;-80
2022/04/02 00:11:31;;;;;;;22.65;15.13;;;3.70;1.00;;;;;;5011260;28;20026;-80
2022/04/02 00:13:58;;;;;;;9.10;7.80;;;3.70;1.00;;;;;;5011003;28;20022;-80
2022/04/02 00:16:24;;;;;;;12.13;10.18;;;4.20;1.00;;;;;;5011625;28;20411;-80
2022/04/02 00:18:50;;;;;;;14.05;11.63;;;3.80;1.00;;;;;;5011744;28;20479;-80
2022/04/02 00:21:17;;;;;;;30.05;20.73;;;3.60;1.00;;;;;;5010960;28;20045;-80
2022/04/02 00:23:46;;;;;;;23.80;16.92;;;3.80;1.00;;;;;;5010899;28;20048;-80
2022/04/02 00:26:19;;;;;;;11.88;10.32;;;3.80;1.00;;;;;;5011403;28;20046;-80
2022/04/02 00:28:46;;;;;;;19.20;14.60;;;4.10;1.00;;;;;;5009787;28;20034;-80
2022/04/02 00:31:13;;;;;;;21.85;16.83;;;3.50;1.00;;;;;;5011257;28;20045;-80
2022/04/02 00:33:39;;;;;;;13.27;11.88;;;3.60;1.00;;;;;;5011104;28;20453;-80
2022/04/02 00:36:06;;;;;;;13.18;11.70;;;3.80;1.00;;;;;;5010522;28;20041;-80
2022/04/02 00:38:32;;;;;;;34.70;24.23;;;3.40;1.00;;;;;;5011304;28;20033;-80
2022/04/02 00:40:58;;;;;;;18.38;15.60;;;3.40;1.00;;;;;;5011395;28;20052;-80
2022/04/02 00:43:32;;;;;;;19.83;15.10;;;3.60;1.00;;;;;;5010513;28;20520;-80
2022/04/02 00:46:00;;;;;;;16.08;13.88;;;3.40;1.00;;;;;;5007530;28;20018;-80
2022/04/02 00:48:27;;;;;;;15.95;13.82;;;3.30;1.00;;;;;;5010435;28;20065;-80
2022/04/02 00:50:58;;;;;;;16.08;14.02;;;3.50;1.00;;;;;;5010742;28;20040;-80
2022/04/02 00:53:28;;;;;;;19.20;15.23;;;3.40;1.00;;;;;;5010804;28;20030;-80
2022/04/02 00:55:54;;;;;;;15.70;13.35;;;3.40;1.00;;;;;;5011326;28;20409;-80
2022/04/02 00:58:20;;;;;;;22.85;17.90;;;3.50;1.00;;;;;;5010772;28;20029;-80
2022/04/02 01:00:46;;;;;;;18.10;14.98;;;3.40;1.00;;;;;;5015097;28;20026;-80
2022/04/02 01:03:13;;;;;;;21.95;17.88;;;3.50;1.00;;;;;;5013978;28;20029;-80
2022/04/02 01:05:39;;;;;;;21.33;17.48;;;3.40;1.00;;;;;;5014270;28;20034;-80
2022/04/02 01:08:08;;;;;;;19.67;17.02;;;3.40;1.00;;;;;;5014483;28;20029;-80
2022/04/02 01:10:41;;;;;;;23.70;18.45;;;3.80;1.00;;;;;;5014707;28;20038;-80
2022/04/02 01:13:08;;;;;;;27.92;22.02;;;3.40;1.00;;;;;;5014658;28;20033;-80
2022/04/02 01:15:34;;;;;;;23.98;18.92;;;3.40;1.00;;;;;;5013681;28;20040;-80
2022/04/02 01:18:00;;;;;;;24.48;20.10;;;3.30;1.00;;;;;;5014008;28;20034;-80
2022/04/02 01:20:29;;;;;;;20.98;17.35;;;3.30;1.00;;;;;;5014475;28;20044;-80
2022/04/02 01:22:55;;;;;;;22.92;18.20;;;3.40;1.00;;;;;;5014525;28;20042;-80
2022/04/02 01:25:21;;;;;;;33.15;23.85;;;3.30;1.00;;;;;;5013910;28;20022;-80
2022/04/02 01:27:47;;;;;;;19.50;16.67;;;3.50;1.00;;;;;;5014713;28;20041;-80
2022/04/02 01:30:14;;;;;;;22.02;17.92;;;3.30;1.00;;;;;;5014291;28;20030;-80
2022/04/02 01:32:41;;;;;;;33.25;24.17;;;3.20;1.00;;;;;;5013479;28;20498;-80
2022/04/02 01:35:08;;;;;;;23.67;18.75;;;3.40;1.00;;;;;;5013733;28;20429;-80
2022/04/02 01:37:35;;;;;;;23.65;18.73;;;3.70;1.00;;;;;;5014144;28;20030;-80
2022/04/02 01:40:04;;;;;;;22.98;18.17;;;3.70;1.00;;;;;;5012925;28;20116;-80
2022/04/02 01:42:30;;;;;;;29.52;22.77;;;3.50;1.00;;;;;;5014003;28;20026;-80
2022/04/02 01:44:56;;;;;;;23.92;19.63;;;3.40;1.00;;;;;;5012283;28;20059;-80
2022/04/02 01:47:22;;;;;;;23.63;18.83;;;3.40;1.00;;;;;;5013267;28;20161;-80
2022/04/02 01:49:49;;;;;;;22.50;18.60;;;3.70;1.00;;;;;;5014050;28;20517;-80
2022/04/02 01:52:16;;;;;;;23.73;19.15;;;3.30;1.00;;;;;;5013695;28;20108;-80
2022/04/02 01:54:43;;;;;;;25.20;19.40;;;3.30;1.00;;;;;;5012414;28;20018;-80
2022/04/02 01:57:09;;;;;;;26.13;20.30;;;3.40;1.00;;;;;;5013319;28;20030;-80
2022/04/02 01:59:34;;;;;;;27.17;19.40;;;3.60;1.00;;;;;;5013244;28;20061;-80
2022/04/02 02:02:00;;;;;;;34.17;23.77;;;3.50;1.00;;;;;;5013052;28;20346;-80
2022/04/02 02:04:27;;;;;;;26.52;21.63;;;3.70;1.00;;;;;;5014048;28;20105;-80
2022/04/02 02:06:52;;;;;;;32.55;23.48;;;3.20;1.00;;;;;;5013835;28;20441;-80
2022/04/02 02:09:18;;;;;;;26.70;20.85;;;3.60;1.00;;;;;;5013082;28;20034;-80
2022/04/02 02:11:44;;;;;;;26.73;20.90;;;3.40;1.00;;;;;;5012349;28;20037;-80
2022/04/02 02:14:09;;;;;;;29.23;22.33;;;3.80;1.00;;;;;;5013030;28;20029;-80
2022/04/02 02:16:35;;;;;;;30.17;22.80;;;3.50;1.00;;;;;;5012873;28;20038;-79
2022/04/02 02:19:00;;;;;;;29.05;20.55;;;3.40;1.00;;;;;;5013561;28;20437;-80
2022/04/02 02:21:26;;;;;;;25.23;20.08;;;3.10;1.00;;;;;;5012731;28;20053;-80
2022/04/02 02:23:52;;;;;;;25.05;20.02;;;3.50;1.00;;;;;;5012722;28;20017;-80
2022/04/02 02:26:17;;;;;;;26.02;19.73;;;3.60;1.00;;;;;;5012752;28;20088;-80
2022/04/02 02:28:43;;;;;;;28.05;21.92;;;3.50;1.00;;;;;;5013289;28;20097;-80
2022/04/02 02:31:09;;;;;;;26.02;21.08;;;4.00;1.00;;;;;;5012833;28;20087;-79
2022/04/02 02:36:19;;;;;;;25.98;20.10;;;3.20;1.00;;;;;;5013303;28;20616;-79
2022/04/02 02:38:45;;;;;;;25.52;20.52;;;3.30;1.00;;;;;;5012661;28;20022;-79
2022/04/02 02:41:10;;;;;;;28.75;22.15;;;3.20;1.00;;;;;;5012661;28;20046;-78
2022/04/02 02:43:37;;;;;;;29.52;23.08;;;3.30;1.00;;;;;;5012287;28;20025;-79
2022/04/02 02:46:02;;;;;;;26.40;20.58;;;3.20;1.00;;;;;;5012761;28;20056;-78
2022/04/02 02:48:28;;;;;;;37.58;25.23;;;3.50;1.00;;;;;;5012661;28;20486;-78
2022/04/02 02:50:54;;;;;;;46.80;30.27;;;3.30;1.00;;;;;;5012847;28;20029;-78
2022/04/02 02:53:20;;;;;;;25.63;20.55;;;3.00;1.00;;;;;;5012338;28;20105;-78
2022/04/02 02:55:46;;;;;;;31.23;22.33;;;3.40;1.00;;;;;;5012416;28;20552;-79
2022/04/02 02:58:12;;;;;;;26.85;21.67;;;3.80;1.00;;;;;;5012721;28;20025;-79
2022/04/02 03:00:40;;;;;;;27.15;21.52;;;3.70;1.00;;;;;;5012624;28;20092;-79
2022/04/02 03:03:06;;;;;;;30.33;23.40;;;3.20;1.00;;;;;;5012361;28;20057;-79
2022/04/02 03:05:32;;;;;;;26.45;20.90;;;3.30;1.00;;;;;;5012474;28;20076;-78
2022/04/02 03:07:57;;;;;;;24.60;19.95;;;3.50;1.00;;;;;;5012166;28;20577;-79
2022/04/02 03:10:27;;;;;;;24.17;19.60;;;3.20;1.00;;;;;;5012205;28;20486;-79
2022/04/02 03:12:55;;;;;;;27.85;21.58;;;3.70;1.00;;;;;;5012635;28;20113;-79
2022/04/02 03:15:22;;;;;;;22.38;18.42;;;3.40;1.00;;;;;;5012477;28;20496;-79
2022/04/02 03:17:48;;;;;;;25.83;21.23;;;3.50;1.00;;;;;;5011944;28;20412;-79
2022/04/02 03:20:17;;;;;;;24.30;20.48;;;3.20;1.00;;;;;;5012303;28;20512;-79
2022/04/02 03:22:44;;;;;;;22.00;19.25;;;3.40;1.00;;;;;;5011799;28;20034;-79
2022/04/02 03:25:12;;;;;;;25.98;20.88;;;3.20;1.00;;;;;;5011851;28;20057;-79
2022/04/02 03:27:39;;;;;;;22.17;18.67;;;3.40;1.00;;;;;;5012234;28;20037;-78
2022/04/02 03:30:09;;;;;;;26.55;21.27;;;3.40;1.00;;;;;;5011778;28;20026;-78
2022/04/02 03:32:35;;;;;;;22.40;19.55;;;3.00;1.00;;;;;;5011804;28;20040;-79
2022/04/02 03:35:01;;;;;;;24.50;19.02;;;3.10;1.00;;;;;;5011662;28;20510;-79
2022/04/02 03:37:28;;;;;;;21.88;18.85;;;3.30;1.00;;;;;;5012239;28;20046;-78
2022/04/02 03:39:54;;;;;;;23.15;19.35;;;3.40;1.00;;;;;;5012216;28;20072;-79
2022/04/02 03:42:20;;;;;;;22.00;18.33;;;3.10;1.00;;;;;;5010997;28;20513;-78
2022/04/02 03:44:47;;;;;;;21.90;18.73;;;3.00;1.00;;;;;;5011933;28;20156;-79
2022/04/02 03:47:12;;;;;;;21.10;18.52;;;3.10;1.00;;;;;;5010450;28;20140;-79
2022/04/02 03:49:40;;;;;;;21.35;18.52;;;3.20;1.00;;;;;;5011560;28;20527;-78
2022/04/02 03:52:07;;;;;;;19.95;17.02;;;3.40;1.00;;;;;;5011865;28;20022;-79
2022/04/02 03:54:35;;;;;;;19.17;17.13;;;3.30;1.00;;;;;;5011146;28;20045;-79
2022/04/02 03:57:02;;;;;;;22.60;19.20;;;3.00;1.00;;;;;;5011063;28;20112;-79
2022/04/02 03:59:28;;;;;;;21.35;17.17;;;2.80;1.00;;;;;;5011171;28;20026;-79
2022/04/02 04:01:53;;;;;;;18.85;16.88;;;3.10;1.00;;;;;;5011790;28;20518;-79
2022/04/02 04:04:19;;;;;;;20.30;17.55;;;3.10;1.00;;;;;;5011347;28;20025;-79
2022/04/02 04:06:45;;;;;;;20.52;18.23;;;3.50;1.00;;;;;;5011727;28;20038;-79
2022/04/02 04:09:10;;;;;;;20.17;18.08;;;3.00;1.00;;;;;;5011520;28;20026;-79
2022/04/02 04:11:36;;;;;;;18.52;16.50;;;3.00;1.00;;;;;;5010631;28;20053;-79
2022/04/02 04:14:02;;;;;;;19.35;16.75;;;2.90;1.00;;;;;;5011362;28;20022;-79
2022/04/02 04:16:27;;;;;;;20.10;17.75;;;2.90;1.00;;;;;;5011617;28;20129;-79
2022/04/02 04:18:54;;;;;;;20.20;17.73;;;2.60;1.00;;;;;;5011739;28;20036;-78
2022/04/02 04:21:19;;;;;;;20.45;17.73;;;2.70;1.00;;;;;;5011008;28;20042;-79
2022/04/02 04:23:45;;;;;;;20.25;17.38;;;2.80;1.00;;;;;;5010902;28;20072;-78
2022/04/02 04:26:14;;;;;;;19.52;17.50;;;2.70;1.00;;;;;;5011014;28;20140;-79
2022/04/02 04:28:40;;;;;;;20.02;17.45;;;3.10;1.00;;;;;;5011264;28;20038;-79
2022/04/02 04:31:05;;;;;;;20.20;17.98;;;2.60;1.00;;;;;;5011293;28;20018;-79
2022/04/02 04:33:32;;;;;;;20.60;17.73;;;2.80;1.00;;;;;;5011285;28;20375;-78
2022/04/02 04:35:57;;;;;;;19.30;17.27;;;3.00;1.00;;;;;;5014988;28;20490;-79
2022/04/02 04:38:23;;;;;;;20.98;18.67;;;2.80;1.00;;;;;;5014964;28;21639;-79
2022/04/02 04:40:49;;;;;;;20.00;17.83;;;2.80;1.00;;;;;;5014969;28;20025;-79
2022/04/02 04:43:14;;;;;;;18.05;16.15;;;3.10;1.00;;;;;;5015092;28;20025;-79
2022/04/02 04:45:40;;;;;;;19.23;16.55;;;2.80;1.00;;;;;;5015448;28;20502;-78
2022/04/02 04:48:06;;;;;;;18.95;16.92;;;2.70;1.00;;;;;;5014672;28;20034;-79
2022/04/02 04:50:32;;;;;;;20.02;16.98;;;2.80;1.00;;;;;;5014678;28;20109;-78
2022/04/02 04:52:57;;;;;;;21.20;18.60;;;3.00;1.00;;;;;;5014527;28;20038;-78
2022/04/02 04:55:23;;;;;;;20.23;17.77;;;2.70;1.00;;;;;;5014654;28;20032;-79
2022/04/02 04:57:49;;;;;;;19.38;17.13;;;2.70;1.00;;;;;;5015688;28;20029;-79
2022/04/02 05:00:16;;;;;;;19.33;17.25;;;2.70;1.00;;;;;;5014369;28;20037;-79
2022/04/02 05:02:47;;;;;;;18.05;16.15;;;2.60;1.00;;;;;;5014451;28;20053;-79
2022/04/02 05:05:14;;;;;;;19.13;16.70;;;2.70;1.00;;;;;;5014677;28;20045;-79
2022/04/02 05:07:42;;;;;;;18.65;16.55;;;2.60;1.00;;;;;;5014326;28;20474;-79
2022/04/02 05:10:10;;;;;;;18.17;15.77;;;3.00;1.00;;;;;;5014504;28;20028;-79
2022/04/02 05:12:36;;;;;;;19.05;17.05;;;2.70;1.00;;;;;;5014804;28;20037;-78
2022/04/02 05:15:04;;;;;;;19.27;16.90;;;2.90;1.00;;;;;;5014234;28;20033;-78
2022/04/02 05:17:31;;;;;;;18.15;16.23;;;2.80;1.00;;;;;;5014140;28;20026;-79
2022/04/02 05:19:57;;;;;;;21.23;17.27;;;2.70;1.00;;;;;;5014411;28;20417;-79
2022/04/02 05:22:23;;;;;;;18.13;16.05;;;3.20;1.00;;;;;;5014383;28;20053;-78
2022/04/02 05:24:48;;;;;;;18.77;16.27;;;2.50;1.00;;;;;;5013042;28;20038;-79
2022/04/02 05:27:14;;;;;;;18.85;16.50;;;2.60;1.00;;;;;;5013630;28;20029;-79
2022/04/02 05:29:40;;;;;;;18.80;15.45;;;2.50;1.00;;;;;;5014464;28;20025;-78
2022/04/02 05:32:06;;;;;;;17.63;15.45;;;3.20;1.00;;;;;;5013820;28;20104;-79
2022/04/02 05:34:32;;;;;;;17.50;15.60;;;2.60;1.00;;;;;;5014201;28;20046;-79
2022/04/02 05:36:58;;;;;;;17.95;16.05;;;2.60;1.00;;;;;;5014373;28;20072;-79
2022/04/02 05:39:24;;;;;;;16.75;14.77;;;2.70;1.00;;;;;;5013570;28;20038;-79
2022/04/02 05:41:51;;;;;;;17.30;15.32;;;2.60;1.00;;;;;;5013869;28;20037;-78
2022/04/02 05:44:17;;;;;;;16.60;14.90;;;2.70;1.00;;;;;;5013560;28;20037;-79
2022/04/02 05:46:42;;;;;;;17.52;15.30;;;2.60;1.00;;;;;;5013489;28;20046;-79
2022/04/02 05:49:08;;;;;;;16.10;14.40;;;3.00;1.00;;;;;;5014089;28;20022;-85
2022/04/02 05:51:34;;;;;;;18.20;15.70;;;2.70;1.00;;;;;;5014178;28;20499;-80
2022/04/02 05:54:00;;;;;;;17.30;15.48;;;2.40;1.00;;;;;;5013227;28;20025;-80
2022/04/02 05:56:27;;;;;;;17.13;15.38;;;2.70;1.00;;;;;;5013480;28;20026;-80
2022/04/02 05:58:53;;;;;;;18.77;16.67;;;2.70;1.00;;;;;;5014249;28;20048;-80
2022/04/02 06:01:19;;;;;;;17.95;16.00;;;2.90;1.00;;;;;;5013500;28;20029;-80
2022/04/02 06:03:44;;;;;;;17.20;15.40;;;2.50;1.00;;;;;;5014058;28;20038;-80
2022/04/02 06:06:10;;;;;;;18.30;15.75;;;2.50;1.00;;;;;;5013368;28;20034;-80
2022/04/02 06:08:36;;;;;;;16.95;14.65;;;2.70;1.00;;;;;;5013049;28;20399;-80
2022/04/02 06:11:02;;;;;;;17.27;15.50;;;2.80;1.00;;;;;;5013658;28;20113;-80
2022/04/02 06:13:28;;;;;;;18.77;16.45;;;2.60;1.00;;;;;;5013758;28;20044;-80
2022/04/02 06:15:54;;;;;;;17.23;15.23;;;2.70;1.00;;;;;;5013805;28;20395;-81
2022/04/02 06:18:20;;;;;;;17.75;15.68;;;3.30;1.00;;;;;;5013065;28;20026;-81
2022/04/02 06:20:48;;;;;;;18.20;16.02;;;3.00;1.00;;;;;;5012791;28;20076;-80
2022/04/02 06:23:14;;;;;;;20.10;16.95;;;2.90;1.00;;;;;;5013805;28;20022;-80
2022/04/02 06:25:40;;;;;;;17.83;15.93;;;2.70;1.00;;;;;;5013142;28;20402;-80
2022/04/02 06:28:06;;;;;;;16.15;13.80;;;3.20;1.00;;;;;;5013392;28;20037;-80
2022/04/02 06:30:32;;;;;;;17.08;15.13;;;2.80;1.00;;;;;;5013080;28;20030;-80
2022/04/02 06:33:00;;;;;;;16.23;14.52;;;2.70;1.00;;;;;;5012991;28;20037;-79
2022/04/02 06:35:27;;;;;;;17.08;14.68;;;2.90;1.00;;;;;;5012323;28;20050;-80
2022/04/02 06:37:54;;;;;;;15.52;13.85;;;2.60;1.00;;;;;;5013316;28;20087;-80
2022/04/02 06:40:21;;;;;;;16.95;15.00;;;2.60;1.00;;;;;;5013006;28;20017;-81
2022/04/02 06:42:47;;;;;;;17.77;14.85;;;3.10;1.00;;;;;;5013406;28;20481;-80
2022/04/02 06:45:13;;;;;;;17.17;15.10;;;2.50;1.00;;;;;;5012641;28;20474;-80
2022/04/02 06:47:39;;;;;;;16.92;15.18;;;3.20;1.00;;;;;;5012487;28;20116;-81
2022/04/02 06:50:10;;;;;;;16.05;13.75;;;2.70;1.00;;;;;;5012625;28;20490;-80
2022/04/02 06:52:37;;;;;;;16.73;14.07;;;2.80;1.00;;;;;;5012774;28;20677;-81
2022/04/02 06:55:03;;;;;;;16.98;14.65;;;3.00;1.00;;;;;;5013093;28;20478;-80
2022/04/02 06:57:29;;;;;;;19.63;15.93;;;2.60;1.00;;;;;;5012367;28;20076;-80
2022/04/02 06:59:55;;;;;;;16.95;14.93;;;2.80;1.00;;;;;;5012707;28;20038;-81
2022/04/02 07:02:21;;;;;;;18.10;15.27;;;3.10;1.00;;;;;;5012404;28;20398;-81
2022/04/02 07:04:47;;;;;;;28.00;22.05;;;2.90;1.00;;;;;;5010792;28;20014;-80
2022/04/02 07:07:13;;;;;;;22.33;18.45;;;3.30;1.00;;;;;;5012468;28;20499;-81
2022/04/02 07:09:39;;;;;;;21.23;18.60;;;2.70;1.00;;;;;;5013168;28;20032;-81
2022/04/02 07:12:06;;;;;;;19.70;16.02;;;3.00;1.00;;;;;;5012597;28;20033;-80
2022/04/02 07:14:32;;;;;;;19.15;16.77;;;2.70;1.00;;;;;;5012025;28;20030;-81
2022/04/02 07:16:58;;;;;;;20.65;17.25;;;3.00;1.00;;;;;;5012071;28;20083;-81
2022/04/02 07:19:25;;;;;;;19.58;16.50;;;2.60;1.00;;;;;;5011791;28;20132;-81
2022/04/02 07:21:52;;;;;;;26.63;20.25;;;2.80;1.00;;;;;;5012657;28;20037;-81
2022/04/02 07:24:19;;;;;;;76.75;49.03;;;2.90;1.00;;;;;;5011828;28;20117;-81
2022/04/02 07:26:47;;;;;;;64.85;45.47;;;2.80;1.00;;;;;;5012186;28;20037;-81
2022/04/02 07:29:14;;;;;;;31.23;24.65;;;3.10;1.00;;;;;;5012077;28;20032;-80
2022/04/02 07:31:46;;;;;;;39.97;31.77;;;2.90;1.00;;;;;;5012059;28;20049;-80
2022/04/02 07:34:13;;;;;;;47.33;38.47;;;2.70;1.00;;;;;;5011859;28;20044;-81
2022/04/02 07:36:48;;;;;;;28.73;24.10;;;2.90;1.00;;;;;;5012573;28;20037;-80
2022/04/02 07:39:17;;;;;;;20.90;18.33;;;2.70;1.00;;;;;;5011907;28;20042;-80
2022/04/02 07:42:22;;;;;;;20.73;18.52;;;3.20;1.00;;;;;;5011714;28;20065;-81
2022/04/02 07:45:05;;;;;;;20.15;17.80;;;2.80;1.00;;;;;;5010210;28;20038;-80
2022/04/02 07:47:33;;;;;;;21.20;18.45;;;2.70;1.00;;;;;;5011525;28;20082;-80
2022/04/02 07:50:08;;;;;;;19.05;16.65;;;2.70;1.00;;;;;;5011368;28;20028;-81
2022/04/02 07:52:36;;;;;;;17.60;15.00;;;2.60;1.00;;;;;;4996469;28;20033;-81
2022/04/02 07:55:06;;;;;;;17.80;16.00;;;2.70;1.00;;;;;;5012373;28;20486;-81
2022/04/02 07:57:41;;;;;;;19.92;16.92;;;2.80;1.00;;;;;;5011820;28;20030;-80
2022/04/02 08:00:10;;;;;;;20.73;16.60;;;3.00;1.00;;;;;;5011900;28;20030;-81
2022/04/02 08:02:37;;;;;;;22.92;20.50;;;3.00;1.00;;;;;;5011051;28;20025;-81
2022/04/02 08:05:10;;;;;;;16.95;14.75;;;3.00;1.00;;;;;;5011723;28;20034;-81
2022/04/02 08:07:49;;;;;;;17.20;14.60;;;2.90;1.00;;;;;;4997143;28;20401;-81
2022/04/02 08:10:18;;;;;;;17.23;14.25;;;3.00;1.00;;;;;;5012020;28;20084;-81
2022/04/02 08:12:44;;;;;;;16.30;14.32;;;3.00;1.00;;;;;;5009992;28;20026;-81
2022/04/02 08:15:19;;;;;;;20.98;17.02;;;3.10;1.00;;;;;;5011294;28;20026;-81
2022/04/02 08:17:47;;;;;;;18.15;15.27;;;3.20;1.00;;;;;;5010903;28;20034;-81
2022/04/02 08:20:17;;;;;;;19.10;17.00;;;3.20;1.00;;;;;;5011723;28;20052;-80
2022/04/02 08:22:44;;;;;;;18.40;16.23;;;3.00;1.00;;;;;;5011002;28;20509;-81
2022/04/02 08:25:10;;;;;;;17.63;14.88;;;3.10;1.00;;;;;;5012067;28;20089;-80
2022/04/02 08:27:57;;;;;;;18.88;15.40;;;3.50;1.00;;;;;;5011456;28;20494;-81
2022/04/02 08:30:33;;;;;;;17.80;14.65;;;3.10;1.00;;;;;;5010901;28;20088;-81
2022/04/02 08:33:26;;;;;;;21.20;16.55;;;3.20;1.00;;;;;;5011135;28;20029;-81
2022/04/02 08:36:03;;;;;;;16.80;15.00;;;3.00;1.00;;;;;;5009599;28;20496;-81
2022/04/02 08:38:45;;;;;;;20.63;16.67;;;3.20;1.00;;;;;;5010934;28;20048;-81
2022/04/02 08:41:50;;;;;;;16.35;14.65;;;3.10;1.00;;;;;;5011032;28;20084;-80
2022/04/02 08:44:48;;;;;;;18.65;15.27;;;3.00;1.00;;;;;;4965520;28;20510;-81
2022/04/02 08:47:32;;;;;;;16.88;14.75;;;3.10;1.00;;;;;;4969401;28;20047;-81
2022/04/02 08:50:15;;;;;;;16.40;14.65;;;3.10;1.00;;;;;;4966816;28;20036;-81
2022/04/02 08:52:49;;;;;;;16.95;14.73;;;3.00;1.00;;;;;;4968805;28;20030;-80
2022/04/02 08:55:17;;;;;;;16.52;14.70;;;3.20;1.00;;;;;;4968223;28;20047;-81
2022/04/02 08:57:54;;;;;;;15.65;14.05;;;3.50;1.00;;;;;;4968415;28;20053;-81
2022/04/02 09:00:28;;;;;;;15.52;13.80;;;3.00;1.00;;;;;;4964795;28;20039;-81
2022/04/02 09:02:53;;;;;;;15.48;13.82;;;3.00;1.00;;;;;;4965189;28;20610;-81
2022/04/02 09:05:23;;;;;;;16.58;14.43;;;3.50;1.00;;;;;;4969841;28;20039;-81
2022/04/02 09:08:06;;;;;;;15.00;13.40;;;3.30;1.00;;;;;;4969981;28;20046;-81
2022/04/02 09:10:47;;;;;;;15.45;13.95;;;3.10;1.00;;;;;;4969862;28;20031;-81
2022/04/02 09:13:35;;;;;;;14.57;13.07;;;3.30;1.00;;;;;;4969994;28;20042;-81
2022/04/02 09:16:09;;;;;;;26.20;21.60;;;3.30;1.00;;;;;;4965934;28;20054;-81
2022/04/02 09:18:36;;;;;;;14.30;12.43;;;3.40;1.00;;;;;;4969388;28;20056;-81
2022/04/02 09:21:16;;;;;;;14.85;13.25;;;3.60;1.00;;;;;;4981734;28;20041;-80
2022/04/02 09:24:02;;;;;;;13.40;12.07;;;3.60;1.00;;;;;;5014057;28;20029;-81
2022/04/02 09:26:53;;;;;;;14.18;12.68;;;3.50;1.00;;;;;;5014160;28;20512;-81
2022/04/02 09:29:23;;;;;;;13.90;12.48;;;3.40;1.00;;;;;;5013944;28;20037;-80
2022/04/02 09:32:07;;;;;;;12.88;11.60;;;3.80;1.00;;;;;;5014541;28;20529;-81
2022/04/02 09:35:10;;;;;;;12.85;11.55;;;3.60;1.00;;;;;;4998611;28;20049;-81
2022/04/02 09:38:04;;;;;;;13.13;11.73;;;3.50;1.00;;;;;;4999145;28;20402;-81
2022/04/02 09:40:43;;;;;;;24.83;18.75;;;3.50;1.00;;;;;;5013940;28;20030;-81
2022/04/02 09:43:29;;;;;;;12.95;11.65;;;3.60;1.00;;;;;;5014009;28;20050;-81
2022/04/02 09:46:24;;;;;;;12.40;11.20;;;3.60;1.00;;;;;;5014001;28;20030;-83
2022/04/02 09:49:14;;;;;;;11.90;10.70;;;3.50;1.00;;;;;;5013589;28;20483;-81
2022/04/02 09:51:42;;;;;;;12.13;10.93;;;3.40;1.00;;;;;;5014367;28;20502;-81
2022/04/02 09:54:42;;;;;;;12.18;10.98;;;3.90;1.00;;;;;;5013478;28;20282;-81
2022/04/02 09:57:23;;;;;;;12.98;11.68;;;3.70;1.00;;;;;;5011626;28;20034;-81
2022/04/02 10:00:09;;;;;;;11.60;10.50;;;3.70;1.00;;;;;;5013462;28;20022;-81
2022/04/02 10:03:06;;;;;;;12.85;11.55;;;3.70;1.00;;;;;;5013503;28;20038;-81
2022/04/02 10:06:04;;;;;;;11.90;10.70;;;3.70;1.00;;;;;;5013574;28;20025;-81
2022/04/02 10:08:58;;;;;;;12.02;10.82;;;3.70;1.00;;;;;;4967650;28;20043;-81
2022/04/02 10:11:29;;;;;;;12.77;11.48;;;3.90;1.00;;;;;;4967944;28;20038;-81
2022/04/02 10:14:00;;;;;;;12.77;11.48;;;4.20;1.00;;;;;;4971855;28;20073;-81
2022/04/02 10:16:27;;;;;;;15.27;12.95;;;4.10;1.00;;;;;;4972194;28;20027;-81
2022/04/02 10:18:54;;;;;;;25.20;17.25;;;4.10;1.00;;;;;;4969101;28;20059;-81
2022/04/02 10:21:23;;;;;;;24.45;19.08;;;3.70;1.00;;;;;;4968036;28;20027;-81
2022/04/02 10:23:54;;;;;;;21.75;19.45;;;3.80;1.00;;;;;;4967452;28;20050;-81
2022/04/02 10:26:23;;;;;;;22.38;19.98;;;3.80;1.00;;;;;;4967454;28;20543;-80
2022/04/02 10:28:55;;;;;;;17.83;15.90;;;3.60;1.00;;;;;;4970187;28;20023;-81
2022/04/02 10:31:35;;;;;;;20.13;17.98;;;3.70;1.00;;;;;;4969963;28;20038;-80
2022/04/02 10:34:33;;;;;;;12.80;11.43;;;3.90;1.00;;;;;;4968761;28;20043;-81
2022/04/02 10:37:17;;;;;;;16.75;14.57;;;4.00;1.00;;;;;;4914724;29;20087;-81
2022/04/02 10:40:01;;;;;;;13.20;11.88;;;3.90;1.00;;;;;;4912937;29;20454;-81
2022/04/02 10:42:34;;;;;;;13.98;12.55;;;3.60;1.00;;;;;;4913920;29;20040;-81
2022/04/02 10:45:05;;;;;;;12.57;10.98;;;3.80;1.00;;;;;;4926976;29;20039;-81
2022/04/02 10:47:34;;;;;;;17.42;14.00;;;3.90;1.00;;;;;;4952239;29;20078;-81
2022/04/02 10:50:05;;;;;;;13.25;11.55;;;3.90;1.00;;;;;;4952190;29;20020;-81
2022/04/02 10:52:31;;;;;;;15.30;12.95;;;3.90;1.00;;;;;;4952262;29;20035;-81
2022/04/02 10:54:57;;;;;;;14.98;12.75;;;4.20;1.00;;;;;;4952693;29;20046;-81
2022/04/02 10:57:22;;;;;;;14.02;12.63;;;3.70;1.00;;;;;;4951991;29;20027;-81
2022/04/02 10:59:48;;;;;;;13.88;12.35;;;3.80;1.00;;;;;;4951952;29;20035;-81
2022/04/02 11:02:22;;;;;;;12.32;10.95;;;4.10;1.00;;;;;;4952047;29;20122;-82
2022/04/02 11:04:59;;;;;;;11.88;10.60;;;3.80;1.00;;;;;;4952502;29;20468;-81
2022/04/02 11:07:29;;;;;;;12.75;10.57;;;4.20;1.00;;;;;;4951738;29;20126;-81
2022/04/02 11:09:58;;;;;;;12.20;10.95;;;4.30;1.00;;;;;;4953226;29;20039;-81
2022/04/02 11:12:41;;;;;;;11.50;10.32;;;4.00;1.00;;;;;;4951458;29;20031;-81
2022/04/02 11:15:19;;;;;;;11.45;10.25;;;3.90;1.00;;;;;;5012125;28;20042;-81
2022/04/02 11:17:47;;;;;;;11.80;10.60;;;4.00;1.00;;;;;;5012251;28;20026;-81
2022/04/02 11:20:21;;;;;;;11.13;9.90;;;3.90;1.00;;;;;;5012186;28;20068;-81
2022/04/02 11:22:54;;;;;;;12.35;10.50;;;4.20;1.00;;;;;;5012204;28;20104;-81
2022/04/02 11:25:31;;;;;;;12.20;10.55;;;3.90;1.00;;;;;;5011619;28;20033;-80
2022/04/02 11:28:20;;;;;;;12.90;11.18;;;3.80;1.00;;;;;;5013361;28;20044;-80
2022/04/02 11:30:50;;;;;;;10.95;9.80;;;3.90;1.00;;;;;;5010927;28;20386;-81
2022/04/02 11:33:22;;;;;;;11.15;9.80;;;4.30;1.00;;;;;;5011758;28;20049;-80
2022/04/02 11:35:49;;;;;;;10.70;9.60;;;4.10;1.00;;;;;;5011470;28;20046;-81
2022/04/02 11:38:21;;;;;;;11.07;9.90;;;4.20;1.00;;;;;;5011649;28;20041;-81
2022/04/02 11:40:52;;;;;;;11.18;9.65;;;4.20;1.00;;;;;;5011504;28;20033;-81
2022/04/02 11:43:29;;;;;;;12.52;10.13;;;4.20;1.00;;;;;;5011925;28;20030;-82
2022/04/02 11:45:59;;;;;;;10.43;9.32;;;4.20;1.00;;;;;;5012562;28;20109;-81
2022/04/02 11:48:30;;;;;;;9.77;8.77;;;4.50;1.00;;;;;;5011482;28;20111;-80
2022/04/02 11:51:09;;;;;;;10.38;9.27;;;4.40;1.00;;;;;;5011656;28;20485;-82
2022/04/02 11:53:38;;;;;;;10.57;9.48;;;4.70;1.00;;;;;;5011696;28;20497;-80
2022/04/02 11:56:34;;;;;;;8.98;8.13;;;4.40;1.00;;;;;;5011814;28;20053;-80
2022/04/02 11:59:04;;;;;;;10.18;9.10;;;4.50;1.00;;;;;;5000089;28;20029;-81
2022/04/02 12:01:48;;;;;;;10.88;9.70;;;4.30;1.00;;;;;;5011534;28;20065;-81
2022/04/02 12:04:19;;;;;;;10.50;9.40;;;4.10;1.00;;;;;;5009216;28;20113;-80
2022/04/02 12:06:49;;;;;;;10.75;9.65;;;4.20;1.00;;;;;;5010365;28;20041;-80
2022/04/02 12:09:19;;;;;;;11.90;10.50;;;4.40;1.00;;;;;;5010970;28;20037;-81
2022/04/02 12:12:05;;;;;;;10.27;9.27;;;4.00;1.00;;;;;;5011285;28;20433;-80
2022/04/02 12:14:41;;;;;;;10.93;9.45;;;4.30;1.00;;;;;;5011332;28;20482;-81
2022/04/02 12:17:12;;;;;;;11.32;10.05;;;4.20;1.00;;;;;;5011804;28;20030;-81
2022/04/02 12:19:40;;;;;;;9.73;8.77;;;4.40;1.00;;;;;;5009722;28;20045;-81
2022/04/02 12:22:26;;;;;;;10.40;9.13;;;4.60;1.00;;;;;;5011781;28;20079;-81
2022/04/02 12:24:58;;;;;;;12.32;10.35;;;4.50;1.00;;;;;;5011264;28;20080;-81
2022/04/02 12:27:26;;;;;;;27.95;20.25;;;4.40;1.00;;;;;;5011199;28;20084;-81
2022/04/02 12:29:53;;;;;;;25.48;20.98;;;4.50;1.00;;;;;;5011356;28;20490;-83
2022/04/02 12:32:32;;;;;;;11.13;10.02;;;4.30;1.00;;;;;;5010923;28;20041;-83
2022/04/02 12:35:13;;;;;;;18.83;15.15;;;4.50;1.00;;;;;;5011104;28;20521;-82
2022/04/02 12:37:49;;;;;;;24.77;19.05;;;4.50;1.00;;;;;;4996273;28;20100;-82
2022/04/02 12:40:16;;;;;;;24.67;19.48;;;4.70;1.00;;;;;;5011260;28;20034;-80
2022/04/02 12:42:44;;;;;;;52.05;31.88;;;4.30;1.00;;;;;;5011452;28;20022;-81
2022/04/02 12:45:18;;;;;;;42.28;27.92;;;4.70;1.00;;;;;;5011004;28;20088;-80
2022/04/02 12:48:02;;;;;;;15.32;13.68;;;4.60;1.00;;;;;;5011145;28;20384;-81
2022/04/02 12:50:34;;;;;;;13.95;12.48;;;5.20;1.00;;;;;;5011240;28;20029;-81
2022/04/02 12:53:00;;;;;;;11.38;10.18;;;4.50;1.00;;;;;;5010586;28;20018;-81
2022/04/02 12:55:29;;;;;;;10.95;9.90;;;4.70;1.00;;;;;;5012787;28;20033;-81
2022/04/02 12:57:57;;;;;;;20.55;16.80;;;4.60;1.00;;;;;;5015295;28;20492;-80
2022/04/02 13:00:32;;;;;;;11.32;10.23;;;4.80;1.00;;;;;;5014503;28;20036;-82
2022/04/02 13:03:00;;;;;;;30.35;23.38;;;4.30;1.00;;;;;;5014923;28;20071;-80
2022/04/02 13:05:44;;;;;;;13.48;12.07;;;4.60;1.00;;;;;;5014677;28;20025;-80
2022/04/02 13:08:17;;;;;;;21.33;16.67;;;4.80;1.00;;;;;;5014407;28;20088;-81